createdAt,value
2019-04-05T00:00:56.921Z,2.25
2019-04-05T00:03:53.048Z,2.50
2019-04-05T00:06:21.941Z,3.17
2019-04-05T00:08:50.524Z,2.62
2019-04-05T00:11:19.306Z,3.55
2019-04-05T00:13:48.201Z,4.10
2019-04-05T00:16:16.989Z,2.80
2019-04-05T00:18:47.031Z,3.02
2019-04-05T00:21:15.993Z,2.75
2019-04-05T00:23:45.194Z,2.40
2019-04-05T00:26:14.180Z,2.33
2019-04-05T00:28:43.814Z,3.92
2019-04-05T00:31:12.342Z,4.17
2019-04-05T00:33:41.053Z,3.77
2019-04-05T00:36:24.587Z,3.83
2019-04-05T00:38:53.368Z,3.90
2019-04-05T00:41:55.310Z,4.10
2019-04-05T00:44:23.818Z,3.60
2019-04-05T00:49:50.878Z,2.27
2019-04-05T00:52:56.121Z,1.90
2019-04-05T00:55:25.009Z,1.90
2019-04-05T01:00:49.012Z,1.90
2019-04-05T01:03:17.485Z,1.77
2019-04-05T01:05:46.378Z,1.97
2019-04-05T01:08:15.569Z,1.95
2019-04-05T01:10:44.873Z,2.00
2019-04-05T01:13:19.291Z,2.10
2019-04-05T01:15:48.173Z,2.43
2019-04-05T01:18:16.960Z,2.08
2019-04-05T01:20:47.134Z,2.10
2019-04-05T01:23:18.051Z,2.00
2019-04-05T01:26:00.443Z,2.22
2019-04-05T01:28:29.621Z,2.17
2019-04-05T01:31:25.747Z,1.80
2019-04-05T01:33:54.249Z,2.00
2019-04-05T01:39:24.675Z,1.67
2019-04-05T01:42:23.894Z,2.13
2019-04-05T01:44:52.961Z,1.85
2019-04-05T01:47:54.993Z,2.00
2019-04-05T01:50:23.881Z,1.95
2019-04-05T01:52:52.808Z,2.22
2019-04-05T01:55:21.805Z,1.90
2019-04-05T01:57:50.892Z,1.85
2019-04-05T02:00:21.511Z,2.03
2019-04-05T02:02:50.052Z,2.20
2019-04-05T02:05:18.900Z,2.10
2019-04-05T02:07:47.368Z,2.10
2019-04-05T02:10:16.367Z,2.20
2019-04-05T02:12:46.794Z,2.17
2019-04-05T02:15:32.769Z,1.90
2019-04-05T02:18:01.903Z,2.12
2019-04-05T02:21:01.431Z,2.40
2019-04-05T02:23:29.966Z,2.52
2019-04-05T02:28:57.850Z,4.47
2019-04-05T02:31:26.638Z,3.80
2019-04-05T02:34:00.879Z,2.33
2019-04-05T02:36:29.430Z,4.15
2019-04-05T02:38:58.213Z,6.10
2019-04-05T02:41:27.824Z,7.50
2019-04-05T02:43:58.757Z,5.27
2019-04-05T02:46:28.533Z,4.10
2019-04-05T02:48:58.089Z,3.40
2019-04-05T02:51:27.277Z,5.27
2019-04-05T02:54:02.576Z,5.40
2019-04-05T02:56:31.734Z,3.00
2019-04-05T02:59:31.007Z,2.73
2019-04-05T03:01:59.998Z,2.20
2019-04-05T03:07:28.087Z,3.67
2019-04-05T03:10:30.179Z,2.45
2019-04-05T03:12:58.942Z,6.25
2019-04-05T03:15:57.554Z,8.48
2019-04-05T03:18:27.550Z,3.20
2019-04-05T03:21:27.248Z,2.55
2019-04-05T03:23:57.274Z,5.37
2019-04-05T03:26:56.095Z,3.42
2019-04-05T03:29:25.049Z,2.97
2019-04-05T03:34:53.855Z,5.23
2019-04-05T03:40:21.871Z,2.70
2019-04-05T03:45:33.035Z,4.80
2019-04-05T03:48:01.924Z,3.87
2019-04-05T03:50:30.712Z,3.63
2019-04-05T03:52:59.290Z,3.75
2019-04-05T03:55:28.075Z,5.67
2019-04-05T03:57:58.301Z,3.90
2019-04-05T04:00:28.838Z,2.50
2019-04-05T04:02:58.232Z,2.83
2019-04-05T04:05:26.900Z,2.58
2019-04-05T04:07:56.309Z,5.57
2019-04-05T04:10:51.647Z,4.30
2019-04-05T04:13:20.713Z,4.28
2019-04-05T04:18:50.861Z,4.78
2019-04-05T04:24:19.765Z,9.60
2019-04-05T04:29:49.077Z,15.90
2019-04-05T04:35:16.649Z,9.20
2019-04-05T04:37:45.650Z,8.67
2019-04-05T04:40:15.368Z,9.17
2019-04-05T04:42:44.578Z,10.00
2019-04-05T04:45:13.650Z,9.73
2019-04-05T04:47:42.752Z,8.20
2019-04-05T04:50:11.823Z,3.60
2019-04-05T04:52:40.777Z,4.80
2019-04-05T04:55:09.614Z,3.10
2019-04-05T04:57:38.603Z,3.30
2019-04-05T05:00:22.501Z,2.57
2019-04-05T05:02:53.273Z,2.02
2019-04-05T05:05:50.829Z,3.10
2019-04-05T05:08:19.624Z,3.63
2019-04-05T05:11:21.282Z,4.00
2019-04-05T05:13:50.476Z,5.83
2019-04-05T05:16:49.349Z,20.83
2019-04-05T05:19:19.280Z,20.12
2019-04-05T05:22:19.306Z,18.40
2019-04-05T05:24:48.505Z,28.13
2019-04-05T05:27:47.689Z,9.10
2019-04-05T05:30:16.905Z,13.50
2019-04-05T05:33:15.472Z,4.97
2019-04-05T05:35:44.061Z,4.65
2019-04-05T05:38:47.365Z,3.07
2019-04-05T05:41:16.047Z,4.60
2019-04-05T05:44:15.262Z,3.67
2019-04-05T05:46:43.825Z,4.12
2019-04-05T05:49:46.206Z,2.73
2019-04-05T05:52:15.003Z,2.65
2019-04-05T05:54:50.759Z,5.15
2019-04-05T05:57:19.332Z,4.47
2019-04-05T05:59:48.232Z,6.83
2019-04-05T06:02:16.985Z,7.50
2019-04-05T06:04:46.600Z,4.72
2019-04-05T06:07:16.409Z,15.70
2019-04-05T06:09:47.670Z,22.07
2019-04-05T06:12:16.056Z,21.47
2019-04-05T06:14:44.507Z,24.55
2019-04-05T06:17:13.610Z,16.97
2019-04-05T06:19:42.319Z,19.12
2019-04-05T06:22:11.194Z,9.80
2019-04-05T06:24:40.585Z,8.48
2019-04-05T06:27:09.162Z,8.55
2019-04-05T06:29:38.056Z,6.43
2019-04-05T06:32:06.834Z,3.93
2019-04-05T06:34:35.649Z,5.27
2019-04-05T06:37:05.845Z,3.37
2019-04-05T06:39:34.451Z,3.33
2019-04-05T06:42:03.313Z,3.20
2019-04-05T06:44:31.893Z,4.62
2019-04-05T06:47:00.683Z,9.70
2019-04-05T06:49:30.089Z,11.00
2019-04-05T06:51:59.185Z,7.97
2019-04-05T06:54:27.973Z,23.55
2019-04-05T06:56:56.497Z,17.82
2019-04-05T06:59:25.166Z,16.10
2019-04-05T07:01:53.917Z,15.13
2019-04-05T07:04:22.506Z,18.03
2019-04-05T07:06:51.080Z,9.68
2019-04-05T07:09:19.664Z,9.17
2019-04-05T07:11:48.246Z,13.50
2019-04-05T07:14:16.929Z,12.63
2019-04-05T07:16:46.134Z,12.87
2019-04-05T07:19:16.043Z,15.18
2019-04-05T07:21:44.645Z,10.03
2019-04-05T07:24:14.737Z,27.93
2019-04-05T07:26:43.322Z,14.73
2019-04-05T07:29:12.205Z,11.25
2019-04-05T07:31:40.989Z,16.77
2019-04-05T07:34:10.913Z,15.82
2019-04-05T07:36:39.720Z,15.17
2019-04-05T07:39:08.277Z,19.67
2019-04-05T07:41:36.863Z,12.20
2019-04-05T07:44:06.777Z,22.28
2019-04-05T07:46:35.869Z,10.78
2019-04-05T07:49:06.094Z,20.36
2019-04-05T07:51:34.976Z,8.67
2019-04-05T07:54:03.564Z,15.80
2019-04-05T07:56:32.154Z,11.45
2019-04-05T07:59:01.141Z,10.70
2019-04-05T08:01:30.222Z,5.30
2019-04-05T08:03:59.129Z,9.67
2019-04-05T08:06:28.769Z,4.87
2019-04-05T08:09:02.335Z,6.77
2019-04-05T08:11:32.478Z,5.50
2019-04-05T08:14:01.837Z,6.33
2019-04-05T08:16:30.735Z,5.00
2019-04-05T08:18:59.312Z,6.10
2019-04-05T08:21:28.405Z,4.00
2019-04-05T08:23:58.005Z,4.70
2019-04-05T08:26:26.897Z,4.87
2019-04-05T08:28:55.907Z,6.67
2019-04-05T08:31:24.573Z,4.33
2019-04-05T08:33:53.485Z,4.70
2019-04-05T08:36:22.045Z,5.33
2019-04-05T08:38:50.833Z,2.33
2019-04-05T08:41:19.933Z,4.05
2019-04-05T08:43:48.511Z,2.25
2019-04-05T08:46:17.088Z,2.50
2019-04-05T08:48:52.164Z,3.67
2019-04-05T08:51:19.193Z,2.93
2019-04-05T08:53:49.297Z,3.35
2019-04-05T08:56:18.206Z,3.72
2019-04-05T08:58:47.888Z,4.67
2019-04-05T09:01:16.470Z,5.87
2019-04-05T09:03:46.505Z,4.12
2019-04-05T09:06:15.071Z,2.80
2019-04-05T09:08:43.649Z,3.00
2019-04-05T09:11:12.461Z,2.77
2019-04-05T09:13:41.552Z,2.37
2019-04-05T09:16:11.726Z,3.00
2019-04-05T09:18:40.964Z,2.80
2019-04-05T09:21:10.202Z,2.87
2019-04-05T09:23:39.439Z,2.92
2019-04-05T09:26:08.022Z,2.87
2019-04-05T09:28:38.248Z,2.60
2019-04-05T09:31:06.821Z,4.22
2019-04-05T09:33:35.724Z,2.93
2019-04-05T09:36:05.751Z,4.20
2019-04-05T09:38:34.334Z,4.17
2019-04-05T09:41:03.120Z,3.70
2019-04-05T09:43:31.808Z,4.42
2019-04-05T09:46:00.669Z,3.23
2019-04-05T09:48:29.891Z,3.05
2019-04-05T09:50:58.341Z,2.50
2019-04-05T09:53:27.140Z,5.87
2019-04-05T09:55:56.343Z,17.45
2019-04-05T09:58:25.013Z,13.03
2019-04-05T10:00:53.619Z,29.35
2019-04-05T10:03:22.384Z,7.08
2019-04-05T10:05:52.163Z,24.27
2019-04-05T10:08:20.980Z,31.13
2019-04-05T10:10:49.775Z,43.07
2019-04-05T10:13:18.865Z,53.25
2019-04-05T10:15:48.979Z,7.83
2019-04-05T10:18:17.662Z,9.20
2019-04-05T10:20:46.686Z,26.87
2019-04-05T10:23:15.478Z,27.58
2019-04-05T10:25:44.297Z,10.58
2019-04-05T10:28:14.964Z,13.98
2019-04-05T10:30:43.549Z,7.62
2019-04-05T10:33:12.436Z,12.43
2019-04-05T10:35:41.038Z,4.90
2019-04-05T10:38:09.803Z,5.07
2019-04-05T10:40:38.583Z,3.73
2019-04-05T10:43:07.168Z,1.60
2019-04-05T10:45:36.264Z,8.10
2019-04-05T10:48:06.484Z,4.66
2019-04-05T10:50:35.572Z,4.03
2019-04-05T10:53:04.257Z,4.10
2019-04-05T10:55:33.054Z,2.30
2019-04-05T10:58:01.629Z,2.52
2019-04-05T11:00:31.981Z,3.25
2019-04-05T11:03:01.152Z,3.62
2019-04-05T11:05:30.246Z,4.20
2019-04-05T11:07:59.059Z,2.33
2019-04-05T11:10:28.673Z,2.95
2019-04-05T11:12:57.849Z,2.02
2019-04-05T11:15:28.723Z,2.47
2019-04-05T11:17:57.180Z,3.15
2019-04-05T11:20:26.251Z,3.77
2019-04-05T11:22:54.958Z,2.62
2019-04-05T11:25:23.834Z,2.90
2019-04-05T11:27:52.731Z,2.90
2019-04-05T11:30:23.132Z,2.93
2019-04-05T11:32:52.776Z,3.20
2019-04-05T11:35:21.960Z,2.62
2019-04-05T11:37:54.065Z,4.92
2019-04-05T11:40:24.049Z,2.40
2019-04-05T11:42:52.836Z,2.27
2019-04-05T11:45:21.830Z,2.47
2019-04-05T11:47:53.535Z,1.85
2019-04-05T11:50:33.600Z,2.00
2019-04-05T11:52:51.760Z,2.30
2019-04-05T11:55:20.868Z,4.75
2019-04-05T11:57:49.748Z,4.67
2019-04-05T12:00:23.697Z,2.63
2019-04-05T12:02:54.903Z,4.08
2019-04-05T12:05:26.904Z,3.60
2019-04-05T12:07:58.585Z,2.72
2019-04-05T12:10:25.235Z,2.67
2019-04-05T12:12:53.939Z,2.65
2019-04-05T12:15:23.109Z,2.40
2019-04-05T12:17:52.094Z,2.40
2019-04-05T12:20:21.237Z,1.90
2019-04-05T12:22:52.453Z,8.88
2019-04-05T12:25:20.845Z,35.37
2019-04-05T12:27:49.725Z,17.53
2019-04-05T12:30:20.184Z,7.90
2019-04-05T12:32:49.406Z,6.60
2019-04-05T12:35:21.210Z,4.33
2019-04-05T12:37:50.497Z,2.50
2019-04-05T12:40:19.395Z,3.43
2019-04-05T12:42:48.257Z,3.70
2019-04-05T12:45:17.071Z,3.63
2019-04-05T12:47:46.162Z,3.60
2019-04-05T12:50:15.580Z,4.87
2019-04-05T12:52:44.431Z,3.23
2019-04-05T12:55:14.365Z,4.40
2019-04-05T12:57:43.153Z,3.58
2019-04-05T13:00:16.639Z,4.20
2019-04-05T13:05:21.228Z,2.40
2019-04-05T13:07:50.677Z,2.42
2019-04-05T13:10:20.125Z,2.70
2019-04-05T13:12:51.618Z,3.65
2019-04-05T13:15:19.013Z,3.10
2019-04-05T13:17:47.759Z,4.90
2019-04-05T13:20:16.853Z,5.47
2019-04-05T13:22:45.457Z,3.30
2019-04-05T13:25:14.321Z,1.73
2019-04-05T13:27:43.350Z,2.17
2019-04-05T13:30:13.048Z,1.98
2019-04-05T13:32:41.608Z,2.45
2019-04-05T13:35:10.990Z,2.35
2019-04-05T13:37:40.470Z,3.17
2019-04-05T13:40:09.641Z,1.92
2019-04-05T13:42:38.633Z,2.13
2019-04-05T13:45:08.326Z,1.70
2019-04-05T13:47:38.966Z,2.30
2019-04-05T13:50:10.883Z,1.75
2019-04-05T13:52:41.187Z,1.00
2019-04-05T13:55:10.689Z,1.10
2019-04-05T13:57:40.878Z,1.25
2019-04-05T14:00:10.014Z,1.00
2019-04-05T14:02:38.953Z,1.25
2019-04-05T14:05:07.833Z,1.00
2019-04-05T14:07:36.523Z,1.20
2019-04-05T14:10:10.521Z,1.65
2019-04-05T14:12:40.298Z,1.57
2019-04-05T14:15:11.375Z,1.27
2019-04-05T14:17:44.052Z,1.13
2019-04-05T14:20:10.800Z,10.73
2019-04-05T14:22:39.477Z,17.95
2019-04-05T14:25:10.336Z,28.25
2019-04-05T14:27:39.496Z,35.88
2019-04-05T14:30:08.906Z,12.18
2019-04-05T14:32:37.591Z,19.37
2019-04-05T14:35:08.247Z,17.40
2019-04-05T14:37:37.645Z,24.20
2019-04-05T14:40:08.350Z,9.05
2019-04-05T14:42:37.665Z,16.40
2019-04-05T14:45:07.361Z,13.70
2019-04-05T14:47:37.495Z,9.75
2019-04-05T14:50:07.170Z,10.18
2019-04-05T14:52:43.140Z,7.93
2019-04-05T14:55:12.040Z,6.12
2019-04-05T14:57:40.515Z,12.33
2019-04-05T15:00:18.506Z,7.98
2019-04-05T15:02:48.588Z,11.68
2019-04-05T15:05:17.636Z,20.48
2019-04-05T15:07:51.122Z,20.60
2019-04-05T15:10:20.020Z,20.50
2019-04-05T15:12:48.807Z,17.95
2019-04-05T15:15:17.570Z,4.40
2019-04-05T15:17:48.169Z,3.15
2019-04-05T15:20:17.723Z,7.53
2019-04-05T15:22:49.322Z,4.70
2019-04-05T15:25:21.598Z,3.17
2019-04-05T15:27:51.743Z,2.80
2019-04-05T15:30:26.557Z,8.83
2019-04-05T15:32:57.775Z,8.63
2019-04-05T15:35:29.901Z,6.37
2019-04-05T15:38:01.365Z,2.42
2019-04-05T15:40:31.603Z,1.82
2019-04-05T15:43:00.572Z,1.73
2019-04-05T15:45:30.069Z,2.65
2019-04-05T15:47:59.162Z,2.58
2019-04-05T15:50:28.717Z,1.67
2019-04-05T15:52:57.329Z,2.10
2019-04-05T15:55:26.105Z,1.60
2019-04-05T15:57:55.137Z,1.20
2019-04-05T16:00:40.464Z,1.37
2019-04-05T16:03:09.088Z,2.35
2019-04-05T16:05:37.977Z,2.20
2019-04-05T16:08:06.746Z,1.80
2019-04-05T16:10:35.653Z,2.00
2019-04-05T16:13:08.045Z,1.70
2019-04-05T16:15:36.488Z,2.08
2019-04-05T16:18:06.704Z,1.90
2019-04-05T16:20:35.296Z,1.72
2019-04-05T16:23:04.422Z,12.70
2019-04-05T16:25:33.289Z,2.10
2019-04-05T16:28:02.159Z,1.52
2019-04-05T16:30:31.282Z,9.83
2019-04-05T16:33:00.151Z,10.43
2019-04-05T16:35:47.687Z,4.05
2019-04-05T16:38:16.525Z,2.70
2019-04-05T16:43:47.363Z,6.83
2019-04-05T16:46:48.198Z,3.12
2019-04-05T16:49:17.168Z,3.37
2019-04-05T16:51:46.999Z,2.05
2019-04-05T16:54:18.222Z,1.90
2019-04-05T16:56:47.409Z,3.65
2019-04-05T16:59:16.519Z,2.10
2019-04-05T17:01:45.914Z,1.65
2019-04-05T17:04:15.093Z,2.60
2019-04-05T17:06:43.913Z,2.52
2019-04-05T17:09:22.147Z,2.20
2019-04-05T17:11:54.889Z,2.00
2019-04-05T17:14:24.099Z,2.00
2019-04-05T17:16:53.037Z,1.75
2019-04-05T17:19:22.213Z,2.13
2019-04-05T17:21:51.117Z,1.82
2019-04-05T17:24:20.318Z,2.10
2019-04-05T17:26:49.244Z,1.87
2019-04-05T17:29:18.765Z,1.90
2019-04-05T17:31:50.677Z,2.10
2019-04-05T17:34:19.383Z,1.87
2019-04-05T17:36:49.692Z,2.27
2019-04-05T17:39:20.806Z,2.20
2019-04-05T17:41:50.754Z,2.22
2019-04-05T17:44:26.555Z,2.10
2019-04-05T17:46:55.492Z,1.80
2019-04-05T17:49:32.302Z,2.20
2019-04-05T17:52:01.892Z,2.55
2019-04-05T17:54:30.590Z,2.50
2019-04-05T17:56:59.259Z,2.47
2019-04-05T17:59:28.747Z,2.37
2019-04-05T18:01:58.352Z,2.40
2019-04-05T18:04:31.584Z,2.33
2019-04-05T18:07:03.648Z,2.90
2019-04-05T18:09:35.748Z,2.85
2019-04-05T18:12:06.610Z,2.30
2019-04-05T18:14:39.860Z,2.60
2019-04-05T18:17:10.740Z,2.60
2019-04-05T18:19:39.441Z,2.25
2019-04-05T18:22:08.529Z,4.20
2019-04-05T18:24:37.616Z,4.28
2019-04-05T18:27:06.307Z,7.90
2019-04-05T18:29:35.277Z,3.37
2019-04-05T18:32:05.627Z,3.43
2019-04-05T18:34:35.129Z,3.92
2019-04-05T18:37:06.376Z,4.70
2019-04-05T18:39:42.683Z,3.70
2019-04-05T18:42:17.909Z,4.27
2019-04-05T18:44:49.893Z,3.95
2019-04-05T18:47:22.585Z,4.13
2019-04-05T18:50:02.377Z,4.13
2019-04-05T18:52:26.023Z,95.67
2019-04-05T18:54:57.699Z,52.83
2019-04-05T18:57:25.735Z,8.75
2019-04-05T18:59:56.466Z,12.65
2019-04-05T19:02:25.381Z,35.10
2019-04-05T19:04:56.393Z,28.05
2019-04-05T19:07:25.505Z,45.35
2019-04-05T19:09:54.391Z,14.63
2019-04-05T19:12:24.295Z,11.97
2019-04-05T19:14:54.345Z,9.33
2019-04-05T19:17:24.080Z,13.43
2019-04-05T19:19:53.589Z,8.05
2019-04-05T19:22:22.594Z,22.70
2019-04-05T19:24:51.481Z,32.93
2019-04-05T19:27:22.240Z,31.30
2019-04-05T19:29:52.221Z,47.83
2019-04-05T19:48:35.534Z,10.03
2019-04-05T19:51:05.669Z,4.50
2019-04-05T19:53:43.262Z,4.25
2019-04-05T19:56:14.613Z,3.83
2019-04-05T19:58:43.193Z,3.30
2019-04-05T20:01:11.777Z,3.90
2019-04-05T20:03:41.034Z,3.37
2019-04-05T20:06:11.393Z,3.33
2019-04-05T20:08:40.458Z,3.30
2019-04-05T20:11:09.489Z,4.20
2019-04-05T20:13:39.713Z,4.37
2019-04-05T20:16:08.325Z,4.30
2019-04-05T20:18:37.006Z,4.00
2019-04-05T20:21:06.881Z,4.06
2019-04-05T20:23:35.978Z,3.67
2019-04-05T20:26:05.790Z,2.93
2019-04-05T20:28:34.818Z,3.73
2019-04-05T20:31:03.573Z,3.90
2019-04-05T20:33:32.146Z,3.30
2019-04-05T20:36:01.213Z,3.40
2019-04-05T20:38:30.031Z,3.47
2019-04-05T20:40:58.845Z,3.65
2019-04-05T20:43:28.309Z,3.25
2019-04-05T20:45:57.409Z,3.52
2019-04-05T20:48:26.301Z,3.73
2019-04-05T20:50:54.885Z,3.83
2019-04-05T20:53:23.569Z,3.37
2019-04-05T20:55:52.363Z,3.80
2019-04-05T20:58:21.083Z,3.67
2019-04-05T21:00:50.468Z,4.20
2019-04-05T21:03:19.125Z,4.37
2019-04-05T21:05:48.625Z,4.03
2019-04-05T21:08:18.641Z,4.08
2019-04-05T21:10:49.209Z,4.97
2019-04-05T21:13:18.433Z,4.30
2019-04-05T21:15:47.980Z,4.17
2019-04-05T21:18:17.301Z,4.28
2019-04-05T21:20:46.178Z,4.60
2019-04-05T21:23:15.046Z,4.20
2019-04-05T21:25:44.149Z,4.65
2019-04-05T21:28:13.137Z,4.53
2019-04-05T21:30:41.717Z,4.08
2019-04-05T21:33:10.300Z,4.23
2019-04-05T21:35:39.221Z,4.70
2019-04-05T21:38:07.772Z,4.27
2019-04-05T21:40:37.405Z,5.80
2019-04-05T21:43:06.320Z,4.08
2019-04-05T21:45:35.158Z,4.35
2019-04-05T21:48:04.453Z,6.53
2019-04-05T21:50:33.040Z,4.80
2019-04-05T21:53:01.821Z,4.23
2019-04-05T21:55:30.585Z,4.97
2019-04-05T21:57:59.760Z,9.60
2019-04-05T22:00:31.305Z,4.60
2019-04-05T22:03:01.724Z,4.77
2019-04-05T22:05:30.265Z,4.75
2019-04-05T22:07:59.358Z,4.50
2019-04-05T22:10:28.062Z,3.95
2019-04-05T22:12:56.546Z,5.35
2019-04-05T22:15:25.230Z,5.03
2019-04-05T22:17:54.742Z,4.72
2019-04-05T22:20:24.249Z,5.60
2019-04-05T22:22:54.084Z,4.87
2019-04-05T22:25:22.911Z,4.60
2019-04-05T22:27:52.330Z,4.60
2019-04-05T22:30:21.305Z,4.30
2019-04-05T22:32:50.429Z,4.47
2019-04-05T22:35:19.189Z,4.70
2019-04-05T22:37:48.365Z,4.47
2019-04-05T22:40:47.337Z,4.60
2019-04-05T22:43:16.297Z,4.95
2019-04-05T22:45:45.328Z,4.37
2019-04-05T22:48:14.524Z,4.53
2019-04-05T22:50:43.444Z,4.60
2019-04-05T22:53:12.033Z,4.67
2019-04-05T22:55:41.480Z,4.90
2019-04-05T22:58:10.011Z,4.65
2019-04-05T23:00:39.776Z,4.67
2019-04-05T23:03:10.397Z,4.50
2019-04-05T23:05:40.188Z,4.95
2019-04-05T23:08:09.265Z,4.00
2019-04-05T23:10:38.632Z,5.08
2019-04-05T23:13:07.363Z,5.08
2019-04-05T23:15:37.159Z,5.15
2019-04-05T23:18:05.962Z,5.47
2019-04-05T23:20:34.709Z,5.27
2019-04-05T23:23:03.229Z,5.60
2019-04-05T23:25:32.192Z,5.58
2019-04-05T23:28:01.365Z,5.87
2019-04-05T23:30:31.826Z,6.27
2019-04-05T23:33:00.672Z,5.93
2019-04-05T23:35:29.547Z,5.85
2019-04-05T23:37:58.213Z,5.83
2019-04-05T23:40:26.966Z,6.33
2019-04-05T23:42:56.122Z,6.05
2019-04-05T23:45:24.693Z,6.57
2019-04-05T23:47:53.529Z,6.27
2019-04-05T23:50:22.119Z,6.70
2019-04-05T23:52:50.910Z,6.37
2019-04-05T23:55:20.097Z,6.42
2019-04-05T23:57:48.781Z,6.47
